KASE/ASE METAR and TAF weather

Enter ICAO airport designator
Station Type Date Time Source
KASE METAR 2020/12/05 05:53 UTC NOAA

KASE 050553Z 15006KT 10SM CLR M07/M13 A3042 RMK AO2 SLP310 T10671128 11011 21078 53012


Station Type Date Time Source
KASE Decoded METAR 2020/12/05 05:53 UTC NOAA

ASPEN-PITKIN COUNTY AIRPORT, CO, United States (KASE) 39-14N 106-52W 2354M
Dec 05, 2020 - 12:53 AM EST / 2020.12.05 0553 UTC
Wind: from the SSE (150 degrees) at 7 MPH (6 KT):0
Visibility: 10 mile(s):0
Sky conditions: clear
Temperature: 19.9 F (-6.7 C)
Windchill: 10 F (-12 C):1
Dew Point: 9.0 F (-12.8 C)
Relative Humidity: 61%
Pressure (altimeter): 30.42 in. Hg (1030 hPa)
Pressure tendency: 0.04 inches (1.2 hPa) higher than three hours ago
ob: KASE 050553Z 15006KT 10SM CLR M07/M13 A3042 RMK AO2 SLP310 T10671128 11011 21078 53012
cycle: 6

Station Type Date Time Source
KASE TAF 2020/12/05 06:24 UTC NOAA

TAF KASE 050522Z 0506/0606 17006KT P6SM SKC
FM051500 VRB03KT P6SM SKC
FM051800 34004KT P6SM SKC
FM060000 22006KT P6SM SKC

Example: see airport list